Time;durP1;ratioP1;P1;durP2;ratioP2;P2;SDS_P1;SDS_P2;PMS_P1;PMS_P2;Temp;Humidity;BMP_temperature;BMP_pressure;BME280_temperature;BME280_humidity;BME280_pressure;Samples;Min_cycle;Max_cycle;Signal;HPM_P1;HPM_P2
2022/02/19 00:00:18;;;;;;;4.37;1.83;;;;;;;;;;5020487;28;20231;-65
2022/02/19 00:02:49;;;;;;;6.07;1.70;;;;;;;;;;5019680;28;20204;-66
2022/02/19 00:05:19;;;;;;;4.67;1.63;;;;;;;;;;5024680;28;20257;-66
2022/02/19 00:07:50;;;;;;;2.30;1.67;;;;;;;;;;5023717;28;20998;-65
2022/02/19 00:10:20;;;;;;;3.23;1.50;;;;;;;;;;5023907;28;20208;-64
2022/02/19 00:12:49;;;;;;;3.90;1.43;;;;;;;;;;5023380;28;20646;-65
2022/02/19 00:15:24;;;;;;;3.53;1.30;;;;;;;;;;5021520;28;20206;-66
2022/02/19 00:17:54;;;;;;;4.53;1.73;;;;;;;;;;5020466;28;20218;-65
2022/02/19 00:20:26;;;;;;;5.13;1.50;;;;;;;;;;5022812;28;20231;-65
2022/02/19 00:23:02;;;;;;;4.07;1.63;;;;;;;;;;5018408;28;20303;-67
2022/02/19 00:25:33;;;;;;;3.10;1.30;;;;;;;;;;5017124;28;20236;-66
2022/02/19 00:28:05;;;;;;;3.57;1.23;;;;;;;;;;5026358;28;20211;-65
2022/02/19 00:30:37;;;;;;;2.33;1.27;;;;;;;;;;5008990;28;20218;-65
2022/02/19 00:33:05;;;;;;;3.80;1.67;;;;;;;;;;5023880;28;20196;-65
2022/02/19 00:35:37;;;;;;;4.17;1.60;;;;;;;;;;5018296;28;20278;-64
2022/02/19 00:38:09;;;;;;;2.43;1.10;;;;;;;;;;5026801;28;20225;-65
2022/02/19 00:40:38;;;;;;;2.53;1.40;;;;;;;;;;5024113;28;20200;-65
2022/02/19 00:43:08;;;;;;;2.70;1.30;;;;;;;;;;5013191;28;20229;-65
2022/02/19 00:45:40;;;;;;;3.03;1.40;;;;;;;;;;5021414;28;20226;-66
2022/02/19 00:48:11;;;;;;;3.50;1.30;;;;;;;;;;5024944;28;20211;-65
2022/02/19 00:50:40;;;;;;;4.40;1.33;;;;;;;;;;5020928;28;20210;-66
2022/02/19 00:53:11;;;;;;;5.20;1.40;;;;;;;;;;5025905;28;20191;-66
2022/02/19 00:55:41;;;;;;;3.67;1.40;;;;;;;;;;5019462;28;20219;-66
2022/02/19 00:58:10;;;;;;;5.07;1.43;;;;;;;;;;5026173;28;20701;-65
2022/02/19 01:00:40;;;;;;;3.67;1.30;;;;;;;;;;5019248;28;20208;-64
2022/02/19 01:03:11;;;;;;;5.00;1.30;;;;;;;;;;5023806;28;20203;-65
2022/02/19 01:05:41;;;;;;;2.13;1.00;;;;;;;;;;5015805;28;20227;-65
2022/02/19 01:08:14;;;;;;;3.23;1.27;;;;;;;;;;5023584;28;20262;-65
2022/02/19 01:10:44;;;;;;;3.67;1.30;;;;;;;;;;5019181;28;20214;-65
2022/02/19 01:13:15;;;;;;;3.47;1.20;;;;;;;;;;5030194;28;20250;-67
2022/02/19 01:15:46;;;;;;;2.23;1.00;;;;;;;;;;5017877;28;20211;-65
2022/02/19 01:18:16;;;;;;;3.50;1.77;;;;;;;;;;5012382;28;20211;-65
2022/02/19 01:20:46;;;;;;;3.07;1.33;;;;;;;;;;5010635;28;20215;-64
2022/02/19 01:23:17;;;;;;;3.33;1.37;;;;;;;;;;5020858;28;20301;-65
2022/02/19 01:25:46;;;;;;;2.37;0.93;;;;;;;;;;5018283;28;20215;-65
2022/02/19 01:28:17;;;;;;;2.83;1.30;;;;;;;;;;5030940;28;20208;-64
2022/02/19 01:30:48;;;;;;;2.87;1.40;;;;;;;;;;5006604;28;20179;-67
2022/02/19 01:33:18;;;;;;;3.90;1.27;;;;;;;;;;5019481;28;20217;-65
2022/02/19 01:35:48;;;;;;;2.47;1.07;;;;;;;;;;5018695;28;20226;-64
2022/02/19 01:38:18;;;;;;;2.63;1.00;;;;;;;;;;5020368;28;20563;-65
2022/02/19 01:40:46;;;;;;;2.87;1.10;;;;;;;;;;5010963;28;20674;-65
2022/02/19 01:43:16;;;;;;;2.23;1.20;;;;;;;;;;5022142;28;20209;-65
2022/02/19 01:45:47;;;;;;;3.50;1.33;;;;;;;;;;5019321;28;20227;-65
2022/02/19 01:48:19;;;;;;;4.57;1.20;;;;;;;;;;5014192;28;20216;-65
2022/02/19 01:50:49;;;;;;;4.40;1.30;;;;;;;;;;5022915;28;20621;-65
2022/02/19 01:53:33;;;;;;;3.03;1.17;;;;;;;;;;5020251;28;21635;-65
2022/02/19 01:56:02;;;;;;;2.43;0.90;;;;;;;;;;5024572;28;20206;-65
2022/02/19 01:58:39;;;;;;;3.63;1.23;;;;;;;;;;5002611;28;20235;-65
2022/02/19 02:01:08;;;;;;;2.47;0.87;;;;;;;;;;5014568;28;20226;-64
2022/02/19 02:03:45;;;;;;;3.37;1.20;;;;;;;;;;5008200;28;20652;-65
2022/02/19 02:06:14;;;;;;;2.67;1.30;;;;;;;;;;5026013;28;20199;-65
2022/02/19 02:08:44;;;;;;;4.20;1.63;;;;;;;;;;5019671;28;20682;-66
2022/02/19 02:11:11;;;;;;;2.57;1.20;;;;;;;;;;5019893;28;20195;-65
2022/02/19 02:13:47;;;;;;;4.10;1.47;;;;;;;;;;5017668;28;20210;-65
2022/02/19 02:16:43;;;;;;;4.57;1.70;;;;;;;;;;5028169;28;20205;-65
2022/02/19 02:19:15;;;;;;;4.80;1.20;;;;;;;;;;5012709;28;20210;-67
2022/02/19 02:21:48;;;;;;;3.47;1.17;;;;;;;;;;5021508;28;20226;-66
2022/02/19 02:24:18;;;;;;;3.17;0.73;;;;;;;;;;5017718;28;20230;-66
2022/02/19 02:26:53;;;;;;;3.43;1.37;;;;;;;;;;5021734;28;20211;-66
2022/02/19 02:29:24;;;;;;;2.93;1.30;;;;;;;;;;5018201;28;20207;-65
2022/02/19 02:31:57;;;;;;;3.57;1.47;;;;;;;;;;5013887;28;20195;-66
2022/02/19 02:34:28;;;;;;;2.40;1.00;;;;;;;;;;5023794;28;20215;-65
2022/02/19 02:37:00;;;;;;;2.27;1.00;;;;;;;;;;5011381;28;20215;-66
2022/02/19 02:39:29;;;;;;;2.93;1.13;;;;;;;;;;5015155;28;20203;-65
2022/02/19 02:42:03;;;;;;;2.33;1.20;;;;;;;;;;5020015;28;20211;-65
2022/02/19 02:44:39;;;;;;;3.77;1.37;;;;;;;;;;5023987;28;20210;-65
2022/02/19 02:47:11;;;;;;;1.83;1.10;;;;;;;;;;5015085;28;20269;-66
2022/02/19 02:49:41;;;;;;;3.57;1.27;;;;;;;;;;5027588;28;20217;-65
2022/02/19 02:52:11;;;;;;;2.93;0.83;;;;;;;;;;5019938;28;20564;-66
2022/02/19 02:54:42;;;;;;;3.57;1.60;;;;;;;;;;5007505;28;20245;-65
2022/02/19 02:57:15;;;;;;;3.17;1.13;;;;;;;;;;5018707;28;20214;-65
2022/02/19 02:59:46;;;;;;;2.97;1.00;;;;;;;;;;5016283;28;20685;-65
2022/02/19 03:02:18;;;;;;;1.67;0.80;;;;;;;;;;5014948;28;20201;-65
2022/02/19 03:04:50;;;;;;;2.53;1.10;;;;;;;;;;5028777;28;20252;-65
2022/02/19 03:07:20;;;;;;;3.03;1.03;;;;;;;;;;5017723;28;20194;-67
2022/02/19 03:09:51;;;;;;;3.40;1.10;;;;;;;;;;5020348;28;20198;-65
2022/02/19 03:12:23;;;;;;;2.93;1.40;;;;;;;;;;5012197;28;20699;-65
2022/02/19 03:14:54;;;;;;;2.90;1.13;;;;;;;;;;5015219;28;20269;-65
2022/02/19 03:17:26;;;;;;;3.10;1.03;;;;;;;;;;5019165;28;20195;-65
2022/02/19 03:19:56;;;;;;;3.07;1.10;;;;;;;;;;5018488;28;20208;-65
2022/02/19 03:22:25;;;;;;;2.67;0.90;;;;;;;;;;5018263;28;20195;-65
2022/02/19 03:24:54;;;;;;;3.47;1.30;;;;;;;;;;5017752;28;20230;-65
2022/02/19 03:27:22;;;;;;;2.90;0.90;;;;;;;;;;5022556;28;20191;-65
2022/02/19 03:29:51;;;;;;;1.87;0.83;;;;;;;;;;5026792;28;20595;-65
2022/02/19 03:32:22;;;;;;;2.63;1.23;;;;;;;;;;5012647;28;20187;-65
2022/02/19 03:34:51;;;;;;;2.77;1.00;;;;;;;;;;5019271;28;20217;-65
2022/02/19 03:37:27;;;;;;;3.00;1.03;;;;;;;;;;5021831;28;20199;-65
2022/02/19 03:40:06;;;;;;;2.57;1.07;;;;;;;;;;5019226;28;20199;-65
2022/02/19 03:42:40;;;;;;;3.73;1.23;;;;;;;;;;5016422;28;20674;-65
2022/02/19 03:45:12;;;;;;;3.60;1.17;;;;;;;;;;5013741;28;20965;-65
2022/02/19 03:47:44;;;;;;;2.10;1.00;;;;;;;;;;5019163;28;20348;-65
2022/02/19 03:50:20;;;;;;;2.17;1.10;;;;;;;;;;5014247;28;20675;-65
2022/02/19 03:52:49;;;;;;;2.90;1.10;;;;;;;;;;5014379;28;20252;-65
2022/02/19 03:55:20;;;;;;;3.33;1.20;;;;;;;;;;5016668;28;20186;-65
2022/02/19 03:57:51;;;;;;;1.50;1.03;;;;;;;;;;5023890;28;20208;-64
2022/02/19 04:00:23;;;;;;;3.97;1.00;;;;;;;;;;5014758;28;20210;-66
2022/02/19 04:03:22;;;;;;;1.40;0.80;;;;;;;;;;5009621;28;20533;-66
2022/02/19 04:05:53;;;;;;;3.03;1.23;;;;;;;;;;5016656;28;20246;-65
2022/02/19 04:08:23;;;;;;;2.30;1.10;;;;;;;;;;5017288;28;20196;-66
2022/02/19 04:10:53;;;;;;;3.80;1.43;;;;;;;;;;5020467;28;20198;-64
2022/02/19 04:13:30;;;;;;;1.70;1.20;;;;;;;;;;5017565;28;20206;-64
2022/02/19 04:16:03;;;;;;;2.90;1.23;;;;;;;;;;5019672;28;20201;-66
2022/02/19 04:18:34;;;;;;;1.30;0.87;;;;;;;;;;5021893;28;20220;-65
2022/02/19 04:21:07;;;;;;;2.00;1.00;;;;;;;;;;5008736;28;20652;-67
2022/02/19 04:23:46;;;;;;;2.10;1.07;;;;;;;;;;5017961;28;20211;-65
2022/02/19 04:26:17;;;;;;;2.37;1.20;;;;;;;;;;5026773;28;20638;-65
2022/02/19 04:28:49;;;;;;;2.97;1.03;;;;;;;;;;5019335;28;20210;-66
2022/02/19 04:31:18;;;;;;;2.90;1.07;;;;;;;;;;5014048;28;20222;-66
2022/02/19 04:33:51;;;;;;;3.03;1.10;;;;;;;;;;5027503;28;20203;-65
2022/02/19 04:36:21;;;;;;;2.53;0.90;;;;;;;;;;5033327;28;20677;-64
2022/02/19 04:38:50;;;;;;;2.57;1.07;;;;;;;;;;5008167;28;20207;-65
2022/02/19 04:41:18;;;;;;;3.20;1.33;;;;;;;;;;5024667;28;20199;-66
2022/02/19 04:43:47;;;;;;;2.87;1.07;;;;;;;;;;5015097;28;20203;-65
2022/02/19 04:46:20;;;;;;;3.13;1.23;;;;;;;;;;5026287;28;20223;-65
2022/02/19 04:48:53;;;;;;;5.03;1.43;;;;;;;;;;5016579;28;20203;-64
2022/02/19 04:51:24;;;;;;;3.47;1.30;;;;;;;;;;5021457;28;20253;-66
2022/02/19 04:53:55;;;;;;;2.43;1.00;;;;;;;;;;5018746;28;20203;-65
2022/02/19 04:56:27;;;;;;;2.67;1.17;;;;;;;;;;5021903;28;20213;-66
2022/02/19 04:58:55;;;;;;;3.97;1.03;;;;;;;;;;5018403;28;20693;-65
2022/02/19 05:01:24;;;;;;;2.63;1.20;;;;;;;;;;5021933;28;20335;-65
2022/02/19 05:03:56;;;;;;;3.17;1.17;;;;;;;;;;5022593;28;20208;-66
2022/02/19 05:06:29;;;;;;;1.97;1.10;;;;;;;;;;5020766;28;20223;-66
2022/02/19 05:08:59;;;;;;;2.67;1.40;;;;;;;;;;5016350;28;20192;-66
2022/02/19 05:11:29;;;;;;;5.47;1.43;;;;;;;;;;5018658;28;20219;-65
2022/02/19 05:14:00;;;;;;;3.13;1.30;;;;;;;;;;5022084;28;20191;-65
2022/02/19 05:16:29;;;;;;;3.27;1.30;;;;;;;;;;5020981;28;20676;-65
2022/02/19 05:19:04;;;;;;;2.73;1.30;;;;;;;;;;5021398;28;20555;-65
2022/02/19 05:21:34;;;;;;;3.33;1.30;;;;;;;;;;5003350;28;20216;-65
2022/02/19 05:24:02;;;;;;;3.13;1.30;;;;;;;;;;5018062;28;20219;-66
2022/02/19 05:26:36;;;;;;;3.50;1.40;;;;;;;;;;5018267;28;20215;-65
2022/02/19 05:29:09;;;;;;;4.37;1.50;;;;;;;;;;5007221;28;20195;-67
2022/02/19 05:31:41;;;;;;;4.10;1.30;;;;;;;;;;5016504;28;20235;-65
2022/02/19 05:34:13;;;;;;;2.20;1.13;;;;;;;;;;5023030;28;20211;-66
2022/02/19 05:36:45;;;;;;;2.20;0.90;;;;;;;;;;5018154;28;20207;-66
2022/02/19 05:39:27;;;;;;;2.30;1.10;;;;;;;;;;5026327;28;20284;-65
2022/02/19 05:41:59;;;;;;;2.10;0.90;;;;;;;;;;5018858;28;20195;-66
2022/02/19 05:44:34;;;;;;;3.67;1.17;;;;;;;;;;5021315;28;20211;-65
2022/02/19 05:47:08;;;;;;;2.93;1.20;;;;;;;;;;5015220;28;20225;-65
2022/02/19 05:49:41;;;;;;;1.53;0.97;;;;;;;;;;5020770;28;20291;-65
2022/02/19 05:52:12;;;;;;;2.87;1.03;;;;;;;;;;5023768;28;20635;-66
2022/02/19 05:54:44;;;;;;;2.57;1.40;;;;;;;;;;5020178;28;20202;-65
2022/02/19 05:57:21;;;;;;;3.57;1.13;;;;;;;;;;5025050;28;20638;-65
2022/02/19 05:59:53;;;;;;;2.57;1.30;;;;;;;;;;5019337;28;20733;-65
2022/02/19 06:02:25;;;;;;;2.97;1.10;;;;;;;;;;5020780;28;20203;-65
2022/02/19 06:04:59;;;;;;;3.60;1.27;;;;;;;;;;5023634;28;20210;-65
2022/02/19 06:07:27;;;;;;;2.40;1.30;;;;;;;;;;5023620;28;20195;-65
2022/02/19 06:09:58;;;;;;;3.37;0.90;;;;;;;;;;5025139;28;20200;-64
2022/02/19 06:12:33;;;;;;;2.87;1.00;;;;;;;;;;5023711;28;20277;-65
2022/02/19 06:15:02;;;;;;;2.83;1.20;;;;;;;;;;5018790;28;20207;-64
2022/02/19 06:17:34;;;;;;;2.43;1.10;;;;;;;;;;5028901;28;20230;-65
2022/02/19 06:20:05;;;;;;;3.13;1.10;;;;;;;;;;5019804;28;20202;-67
2022/02/19 06:22:36;;;;;;;2.30;1.10;;;;;;;;;;5008230;28;20190;-66
2022/02/19 06:25:07;;;;;;;2.63;1.10;;;;;;;;;;5015878;28;20571;-67
2022/02/19 06:27:39;;;;;;;2.57;1.07;;;;;;;;;;5026345;28;20666;-65
2022/02/19 06:30:37;;;;;;;2.70;1.00;;;;;;;;;;5019107;28;20225;-64
2022/02/19 06:33:12;;;;;;;3.97;1.33;;;;;;;;;;5009011;28;20319;-65
2022/02/19 06:36:03;;;;;;;2.20;1.00;;;;;;;;;;5005741;28;20278;-64
2022/02/19 06:38:39;;;;;;;4.03;1.13;;;;;;;;;;5020471;28;20205;-65
2022/02/19 06:41:12;;;;;;;2.77;1.10;;;;;;;;;;5028928;28;20182;-65
2022/02/19 06:43:44;;;;;;;3.10;1.30;;;;;;;;;;5007452;28;20223;-66
2022/02/19 06:46:13;;;;;;;3.00;1.30;;;;;;;;;;5029376;28;20642;-64
2022/02/19 06:48:43;;;;;;;2.10;1.00;;;;;;;;;;5008240;28;20267;-64
2022/02/19 06:51:14;;;;;;;4.43;1.00;;;;;;;;;;5024092;28;20642;-65
2022/02/19 06:53:44;;;;;;;2.50;1.20;;;;;;;;;;5020845;28;20196;-65
2022/02/19 06:56:15;;;;;;;3.37;1.30;;;;;;;;;;5026510;28;20207;-67
2022/02/19 06:58:45;;;;;;;1.63;1.27;;;;;;;;;;5020088;28;20245;-66
2022/02/19 07:01:16;;;;;;;4.57;1.30;;;;;;;;;;5019832;28;20211;-66
2022/02/19 07:03:47;;;;;;;1.97;1.10;;;;;;;;;;5026304;28;20195;-65
2022/02/19 07:06:21;;;;;;;2.43;0.90;;;;;;;;;;5033728;28;20232;-65
2022/02/19 07:08:51;;;;;;;2.73;1.10;;;;;;;;;;5026475;28;20210;-65
2022/02/19 07:11:26;;;;;;;3.60;1.37;;;;;;;;;;5029654;28;20215;-65
2022/02/19 07:13:59;;;;;;;2.50;0.93;;;;;;;;;;5025505;28;20195;-65
2022/02/19 07:16:32;;;;;;;3.50;1.07;;;;;;;;;;5026905;28;20214;-65
2022/02/19 07:19:03;;;;;;;3.67;0.80;;;;;;;;;;5019453;28;20546;-66
2022/02/19 07:21:37;;;;;;;2.80;1.20;;;;;;;;;;5028439;28;20218;-66
2022/02/19 07:24:07;;;;;;;1.63;0.97;;;;;;;;;;5025768;28;20219;-66
2022/02/19 07:26:38;;;;;;;2.60;0.90;;;;;;;;;;5029436;28;20253;-65
2022/02/19 07:29:08;;;;;;;2.00;0.90;;;;;;;;;;5026633;28;20197;-66
2022/02/19 07:31:42;;;;;;;4.07;1.13;;;;;;;;;;5021814;28;20211;-65
2022/02/19 07:34:13;;;;;;;2.00;0.90;;;;;;;;;;5007367;28;20199;-65
2022/02/19 07:36:44;;;;;;;2.33;1.30;;;;;;;;;;5006653;28;20207;-64
2022/02/19 07:39:16;;;;;;;1.87;1.10;;;;;;;;;;5020149;28;20550;-64
2022/02/19 07:41:50;;;;;;;2.53;1.30;;;;;;;;;;5018985;28;20207;-63
2022/02/19 07:44:20;;;;;;;2.10;1.20;;;;;;;;;;5019844;28;20230;-64
2022/02/19 07:46:52;;;;;;;2.73;1.10;;;;;;;;;;5027365;28;20242;-64
2022/02/19 08:00:37;;;;;;;3.70;1.10;;;;;;;;;;5023581;28;20219;-64
2022/02/19 08:03:20;;;;;;;3.37;1.37;;;;;;;;;;5007704;28;20231;-64
2022/02/19 08:05:50;;;;;;;1.50;0.77;;;;;;;;;;5023811;28;20228;-65
2022/02/19 08:08:20;;;;;;;2.87;1.20;;;;;;;;;;5010521;28;20214;-66
2022/02/19 08:10:50;;;;;;;3.07;1.20;;;;;;;;;;5020081;28;20216;-66
2022/02/19 08:13:22;;;;;;;2.63;1.10;;;;;;;;;;5021942;28;20228;-66
2022/02/19 08:16:08;;;;;;;2.37;1.00;;;;;;;;;;5008953;28;20235;-65
2022/02/19 08:18:39;;;;;;;2.70;1.40;;;;;;;;;;5027680;28;20217;-64
2022/02/19 08:21:08;;;;;;;3.80;1.30;;;;;;;;;;5019120;28;20256;-66
2022/02/19 08:23:53;;;;;;;2.50;1.10;;;;;;;;;;5021196;28;20226;-65
2022/02/19 08:26:24;;;;;;;1.97;1.03;;;;;;;;;;5024601;28;20234;-67
2022/02/19 08:28:53;;;;;;;4.13;1.60;;;;;;;;;;5027227;28;20183;-65
2022/02/19 08:31:22;;;;;;;2.17;0.90;;;;;;;;;;5024873;28;20198;-66
2022/02/19 08:33:54;;;;;;;2.90;1.10;;;;;;;;;;5027213;28;20271;-65
2022/02/19 08:36:21;;;;;;;2.53;1.27;;;;;;;;;;5025791;28;20214;-64
2022/02/19 08:38:51;;;;;;;1.97;0.93;;;;;;;;;;5028259;28;20283;-64
2022/02/19 08:41:18;;;;;;;4.20;0.90;;;;;;;;;;5024648;28;20226;-65
2022/02/19 08:43:48;;;;;;;2.97;1.50;;;;;;;;;;5025061;28;20199;-65
2022/02/19 08:46:21;;;;;;;2.43;1.10;;;;;;;;;;5021480;28;20217;-66
2022/02/19 08:48:51;;;;;;;2.97;1.47;;;;;;;;;;5020723;28;20203;-65
2022/02/19 08:51:22;;;;;;;3.07;1.20;;;;;;;;;;5012331;28;20203;-65
2022/02/19 08:53:56;;;;;;;4.60;1.10;;;;;;;;;;5020941;28;20234;-64
2022/02/19 08:56:28;;;;;;;2.80;1.10;;;;;;;;;;5022981;28;20889;-65
2022/02/19 08:58:57;;;;;;;4.07;1.43;;;;;;;;;;5001076;28;20237;-65
2022/02/19 09:01:27;;;;;;;3.67;1.67;;;;;;;;;;5006384;28;20885;-66
2022/02/19 09:04:10;;;;;;;3.77;1.30;;;;;;;;;;5022512;28;20258;-65
2022/02/19 09:06:47;;;;;;;2.40;1.23;;;;;;;;;;5024256;28;20199;-64
2022/02/19 09:09:20;;;;;;;2.70;1.10;;;;;;;;;;5016752;28;20208;-65
2022/02/19 09:11:48;;;;;;;3.27;1.23;;;;;;;;;;5021427;28;20212;-65
2022/02/19 09:14:21;;;;;;;2.40;1.10;;;;;;;;;;5018810;28;20626;-65
2022/02/19 09:16:58;;;;;;;3.33;1.27;;;;;;;;;;5023311;28;20617;-64
2022/02/19 09:19:31;;;;;;;2.87;1.40;;;;;;;;;;5021099;28;20207;-64
2022/02/19 09:22:06;;;;;;;3.87;1.50;;;;;;;;;;5024234;28;20204;-64
2022/02/19 09:24:39;;;;;;;4.30;1.27;;;;;;;;;;5003022;28;20658;-65
2022/02/19 09:27:09;;;;;;;2.30;1.37;;;;;;;;;;4999160;28;20242;-65
2022/02/19 09:29:42;;;;;;;3.37;1.53;;;;;;;;;;5016433;28;20203;-64
2022/02/19 09:32:15;;;;;;;4.83;1.17;;;;;;;;;;5024932;28;20214;-65
2022/02/19 09:34:46;;;;;;;5.77;1.60;;;;;;;;;;5014876;28;20540;-64
2022/02/19 09:37:19;;;;;;;3.60;1.50;;;;;;;;;;5022083;28;20861;-61
2022/02/19 09:39:52;;;;;;;3.90;1.20;;;;;;;;;;5020608;28;20199;-63
2022/02/19 09:42:19;;;;;;;3.67;1.60;;;;;;;;;;5007699;28;20207;-63
2022/02/19 09:44:49;;;;;;;5.07;1.60;;;;;;;;;;5020180;28;20203;-64
2022/02/19 09:47:29;;;;;;;7.93;1.70;;;;;;;;;;5016969;28;20238;-63
2022/02/19 09:49:59;;;;;;;9.37;1.60;;;;;;;;;;5022476;28;20206;-63
2022/02/19 09:52:30;;;;;;;4.33;1.80;;;;;;;;;;5000729;28;20740;-64
2022/02/19 09:55:02;;;;;;;4.60;1.80;;;;;;;;;;5020884;28;20203;-63
2022/02/19 09:57:34;;;;;;;6.93;1.50;;;;;;;;;;5017077;28;20225;-64
2022/02/19 10:00:05;;;;;;;6.97;1.80;;;;;;;;;;5019255;28;20308;-64
2022/02/19 10:02:42;;;;;;;7.43;1.73;;;;;;;;;;5018736;28;20207;-64
2022/02/19 10:05:27;;;;;;;5.80;2.13;;;;;;;;;;4986253;28;20223;-63
2022/02/19 10:08:01;;;;;;;7.37;1.70;;;;;;;;;;5016718;28;20682;-64
2022/02/19 10:10:34;;;;;;;5.87;2.47;;;;;;;;;;5020447;28;20210;-63
2022/02/19 10:13:10;;;;;;;8.07;1.80;;;;;;;;;;5009809;28;20218;-66
2022/02/19 10:15:49;;;;;;;5.27;1.80;;;;;;;;;;5019419;28;20574;-67
2022/02/19 10:18:30;;;;;;;6.17;1.80;;;;;;;;;;5019414;28;20195;-65
2022/02/19 10:21:16;;;;;;;4.53;1.50;;;;;;;;;;5018840;28;20218;-67
2022/02/19 10:23:45;;;;;;;6.80;1.40;;;;;;;;;;5020190;28;20219;-68
2022/02/19 10:26:24;;;;;;;4.50;1.33;;;;;;;;;;5022241;28;20223;-68
2022/02/19 10:29:02;;;;;;;3.77;1.77;;;;;;;;;;5018422;28;20774;-67
2022/02/19 10:31:31;;;;;;;5.37;1.70;;;;;;;;;;5020850;28;20202;-67
2022/02/19 10:34:09;;;;;;;3.10;1.30;;;;;;;;;;5005802;28;20191;-66
2022/02/19 10:36:50;;;;;;;4.60;1.90;;;;;;;;;;5022416;28;20610;-65
2022/02/19 10:39:31;;;;;;;4.40;1.30;;;;;;;;;;5020507;28;20214;-65
2022/02/19 10:42:12;;;;;;;5.27;1.30;;;;;;;;;;5005073;28;20225;-64
2022/02/19 10:44:46;;;;;;;5.50;1.60;;;;;;;;;;5020311;28;20207;-63
2022/02/19 10:47:39;;;;;;;4.73;1.57;;;;;;;;;;5016592;28;20411;-64
2022/02/19 10:50:18;;;;;;;5.67;1.60;;;;;;;;;;5024047;28;20334;-67
2022/02/19 10:53:09;;;;;;;3.10;1.23;;;;;;;;;;5013724;28;20203;-67
2022/02/19 10:55:40;;;;;;;3.43;1.53;;;;;;;;;;5013727;28;20203;-67
2022/02/19 10:58:12;;;;;;;4.87;1.57;;;;;;;;;;5015665;28;20218;-68
2022/02/19 11:00:41;;;;;;;3.10;1.10;;;;;;;;;;4998740;28;20231;-67
2022/02/19 11:03:10;;;;;;;5.30;1.60;;;;;;;;;;4978324;28;20201;-70
2022/02/19 11:05:40;;;;;;;6.13;2.47;;;;;;;;;;4980167;28;20214;-69
2022/02/19 11:08:13;;;;;;;15.30;3.87;;;;;;;;;;4999061;28;20266;-67
2022/02/19 11:10:46;;;;;;;10.63;3.20;;;;;;;;;;5005406;28;20210;-65
2022/02/19 11:13:18;;;;;;;16.60;6.13;;;;;;;;;;4982733;28;20213;-65
2022/02/19 11:15:48;;;;;;;21.20;6.30;;;;;;;;;;4994525;28;20206;-65
2022/02/19 11:18:18;;;;;;;14.70;5.20;;;;;;;;;;4998503;28;20254;-65
2022/02/19 11:20:50;;;;;;;14.80;5.17;;;;;;;;;;4999356;28;20199;-63
2022/02/19 11:23:39;;;;;;;17.03;5.10;;;;;;;;;;4994841;28;20680;-64
2022/02/19 11:26:11;;;;;;;15.33;5.70;;;;;;;;;;5006194;28;20211;-66
2022/02/19 11:28:42;;;;;;;20.60;5.60;;;;;;;;;;5000370;28;20574;-65
2022/02/19 11:31:14;;;;;;;19.97;5.43;;;;;;;;;;4994957;28;20208;-65
2022/02/19 11:33:44;;;;;;;11.87;4.77;;;;;;;;;;4999256;28;20277;-65
2022/02/19 11:36:24;;;;;;;13.37;4.37;;;;;;;;;;5002887;28;20211;-65
2022/02/19 11:38:56;;;;;;;9.53;3.73;;;;;;;;;;4987740;28;20234;-65
2022/02/19 11:41:36;;;;;;;11.87;4.20;;;;;;;;;;5005646;28;20222;-63
2022/02/19 11:44:19;;;;;;;10.93;3.87;;;;;;;;;;4998963;28;20284;-64
2022/02/19 11:46:50;;;;;;;11.40;4.57;;;;;;;;;;5000438;28;20232;-69
2022/02/19 11:49:22;;;;;;;12.90;4.03;;;;;;;;;;4990084;28;20223;-66
2022/02/19 11:52:06;;;;;;;12.00;3.93;;;;;;;;;;5008261;28;20740;-65
2022/02/19 11:55:16;;;;;;;9.10;3.27;;;;;;;;;;5003975;28;20188;-66
2022/02/19 11:57:46;;;;;;;12.83;4.07;;;;;;;;;;5004824;28;20756;-66
2022/02/19 12:00:35;;;;;;;9.07;3.33;;;;;;;;;;5015458;28;20259;-68
2022/02/19 12:03:20;;;;;;;14.27;3.37;;;;;;;;;;5018952;28;20280;-66
2022/02/19 12:06:07;;;;;;;12.33;2.87;;;;;;;;;;5021836;28;20674;-66
2022/02/19 12:08:49;;;;;;;6.20;2.63;;;;;;;;;;5018993;28;20285;-66
2022/02/19 12:11:24;;;;;;;8.23;3.27;;;;;;;;;;5019022;28;20207;-68
2022/02/19 12:13:57;;;;;;;8.93;2.60;;;;;;;;;;5014240;28;20214;-67
2022/02/19 12:16:39;;;;;;;7.00;3.17;;;;;;;;;;5013555;28;20261;-64
2022/02/19 12:19:10;;;;;;;6.43;3.00;;;;;;;;;;5013568;28;20203;-65
2022/02/19 12:21:43;;;;;;;7.03;2.50;;;;;;;;;;5020924;28;20209;-66
2022/02/19 12:24:26;;;;;;;5.70;2.30;;;;;;;;;;4998857;28;20225;-65
2022/02/19 12:27:08;;;;;;;9.30;2.70;;;;;;;;;;5020903;28;20211;-67
2022/02/19 12:29:47;;;;;;;6.30;2.23;;;;;;;;;;5020594;28;20191;-63
2022/02/19 12:32:33;;;;;;;5.47;2.33;;;;;;;;;;5019006;28;20261;-64
2022/02/19 12:35:03;;;;;;;5.60;2.00;;;;;;;;;;5018558;28;20214;-66
2022/02/19 12:37:49;;;;;;;7.33;1.77;;;;;;;;;;5022161;28;20212;-66
2022/02/19 12:40:24;;;;;;;4.77;1.77;;;;;;;;;;5022695;28;20868;-65
2022/02/19 12:43:00;;;;;;;5.77;1.50;;;;;;;;;;5023160;28;20218;-64
2022/02/19 12:45:29;;;;;;;4.00;1.70;;;;;;;;;;5018782;28;20218;-65
2022/02/19 12:47:58;;;;;;;5.13;2.00;;;;;;;;;;5023564;28;20242;-64
2022/02/19 12:50:31;;;;;;;4.97;1.80;;;;;;;;;;5024592;28;20280;-62
2022/02/19 12:53:03;;;;;;;3.70;1.70;;;;;;;;;;5022291;28;20195;-63
2022/02/19 12:55:35;;;;;;;4.90;1.40;;;;;;;;;;5024556;28;20242;-65
2022/02/19 12:58:06;;;;;;;2.07;1.13;;;;;;;;;;5024882;28;20558;-66
2022/02/19 13:00:36;;;;;;;3.03;1.50;;;;;;;;;;5015995;28;20238;-65
2022/02/19 13:03:20;;;;;;;3.17;1.80;;;;;;;;;;5025360;28;20261;-66
2022/02/19 13:05:55;;;;;;;3.47;1.60;;;;;;;;;;5017047;28;20743;-65
2022/02/19 13:08:37;;;;;;;3.10;1.80;;;;;;;;;;5011406;28;20238;-66
2022/02/19 13:11:07;;;;;;;9.10;1.83;;;;;;;;;;5015962;28;20571;-64
2022/02/19 13:13:44;;;;;;;5.40;2.10;;;;;;;;;;5024221;28;20547;-63
2022/02/19 13:16:29;;;;;;;5.10;1.70;;;;;;;;;;5017008;28;20200;-64
2022/02/19 13:19:00;;;;;;;7.40;2.30;;;;;;;;;;5022888;28;20203;-63
2022/02/19 13:21:32;;;;;;;3.20;1.80;;;;;;;;;;5004269;28;20289;-64
2022/02/19 13:24:16;;;;;;;4.90;2.10;;;;;;;;;;5023408;28;21396;-64
2022/02/19 13:26:50;;;;;;;4.10;1.90;;;;;;;;;;5022194;28;20207;-66
2022/02/19 13:29:26;;;;;;;7.23;1.90;;;;;;;;;;5025114;28;20242;-66
2022/02/19 13:31:59;;;;;;;9.17;3.07;;;;;;;;;;5017741;28;20195;-66
2022/02/19 13:34:36;;;;;;;7.60;3.40;;;;;;;;;;5021372;28;20211;-66
2022/02/19 13:37:07;;;;;;;6.00;3.03;;;;;;;;;;5018397;28;20211;-63
2022/02/19 13:39:45;;;;;;;7.30;2.77;;;;;;;;;;5021188;28;20318;-63
2022/02/19 13:42:46;;;;;;;7.70;3.17;;;;;;;;;;5018518;28;20256;-67
2022/02/19 13:45:45;;;;;;;5.43;2.97;;;;;;;;;;5012621;28;20215;-65
2022/02/19 13:48:18;;;;;;;5.90;3.10;;;;;;;;;;4999078;28;20227;-66
2022/02/19 13:50:51;;;;;;;5.97;2.97;;;;;;;;;;5019366;28;20221;-64
2022/02/19 13:53:26;;;;;;;6.20;2.60;;;;;;;;;;5024324;28;20254;-62
2022/02/19 13:56:03;;;;;;;7.27;2.90;;;;;;;;;;5017144;28;20218;-68
2022/02/19 13:58:54;;;;;;;7.97;2.60;;;;;;;;;;5019311;28;20224;-68
2022/02/19 14:01:26;;;;;;;4.47;2.23;;;;;;;;;;5020727;28;20203;-67
2022/02/19 14:03:57;;;;;;;4.47;2.30;;;;;;;;;;5004678;28;20211;-68
2022/02/19 14:06:32;;;;;;;6.27;2.83;;;;;;;;;;5021187;28;20516;-67
2022/02/19 14:09:32;;;;;;;6.80;2.60;;;;;;;;;;5018523;28;20227;-68
2022/02/19 14:12:12;;;;;;;5.10;2.20;;;;;;;;;;5002456;28;20940;-66
2022/02/19 14:14:46;;;;;;;7.63;2.30;;;;;;;;;;5004032;28;20222;-68
2022/02/19 14:17:17;;;;;;;4.73;2.10;;;;;;;;;;5001431;28;20195;-65
2022/02/19 14:19:59;;;;;;;6.87;2.40;;;;;;;;;;5015863;28;20223;-62
2022/02/19 14:22:40;;;;;;;5.37;2.50;;;;;;;;;;5015754;28;20199;-64
2022/02/19 14:25:14;;;;;;;4.37;2.13;;;;;;;;;;5013606;28;20223;-67
2022/02/19 14:28:02;;;;;;;5.20;2.20;;;;;;;;;;5022075;28;20253;-65
2022/02/19 14:30:42;;;;;;;3.90;2.30;;;;;;;;;;5019668;28;20227;-66
2022/02/19 14:33:17;;;;;;;4.80;2.20;;;;;;;;;;5021562;28;20645;-65
2022/02/19 14:36:01;;;;;;;5.60;2.40;;;;;;;;;;5017642;28;20258;-65
2022/02/19 14:38:37;;;;;;;4.93;2.53;;;;;;;;;;5022237;28;20249;-67
2022/02/19 14:41:09;;;;;;;4.70;2.00;;;;;;;;;;5015931;28;20231;-64
2022/02/19 14:43:41;;;;;;;4.50;2.20;;;;;;;;;;5022554;28;20195;-64
2022/02/19 14:46:16;;;;;;;4.47;2.37;;;;;;;;;;5019301;28;20206;-65
2022/02/19 14:49:06;;;;;;;3.57;1.90;;;;;;;;;;5012599;28;20263;-65
2022/02/19 14:51:35;;;;;;;5.40;2.40;;;;;;;;;;5014629;28;20202;-66
2022/02/19 14:54:07;;;;;;;4.43;2.10;;;;;;;;;;5023282;28;20213;-65
2022/02/19 14:56:39;;;;;;;6.83;1.90;;;;;;;;;;5016217;28;20241;-65
2022/02/19 14:59:09;;;;;;;6.63;2.10;;;;;;;;;;5003730;28;20233;-64
2022/02/19 15:01:40;;;;;;;4.10;1.83;;;;;;;;;;5015420;28;20184;-65
2022/02/19 15:04:12;;;;;;;10.47;2.33;;;;;;;;;;5017881;28;20206;-65
2022/02/19 15:06:46;;;;;;;36.30;8.73;;;;;;;;;;5019386;28;20207;-62
2022/02/19 15:09:16;;;;;;;71.17;14.33;;;;;;;;;;5014913;28;20229;-63
2022/02/19 15:11:49;;;;;;;66.93;15.13;;;;;;;;;;5018311;28;20226;-63
2022/02/19 15:14:22;;;;;;;61.50;16.53;;;;;;;;;;5023033;28;20210;-61
2022/02/19 15:16:51;;;;;;;56.77;14.43;;;;;;;;;;5019594;28;20638;-65
2022/02/19 15:19:22;;;;;;;64.10;15.17;;;;;;;;;;5021385;28;20216;-64
2022/02/19 15:21:53;;;;;;;48.63;14.27;;;;;;;;;;5018357;28;20202;-64
2022/02/19 15:24:25;;;;;;;41.33;11.30;;;;;;;;;;5015132;28;20833;-66
2022/02/19 15:26:56;;;;;;;33.13;10.93;;;;;;;;;;5001284;28;20210;-61
2022/02/19 15:29:27;;;;;;;32.87;9.90;;;;;;;;;;5023358;28;20246;-62